Time;durP1;ratioP1;P1;durP2;ratioP2;P2;SDS_P1;SDS_P2;PMS_P1;PMS_P2;Temp;Humidity;BMP_temperature;BMP_pressure;BME280_temperature;BME280_humidity;BME280_pressure;Samples;Min_cycle;Max_cycle;Signal;HPM_P1;HPM_P2
2023/06/24 00:02:16;;;;;;;11.93;8.50;;;19.60;99.90;;;;;;4921586;28;20035;-85
2023/06/24 00:04:41;;;;;;;12.88;8.90;;;19.60;99.90;;;;;;4923019;28;20034;-86
2023/06/24 00:07:07;;;;;;;12.70;8.50;;;19.60;99.90;;;;;;4920991;28;21174;-87
2023/06/24 00:09:33;;;;;;;9.65;8.18;;;19.60;99.90;;;;;;4937501;28;20066;-86
2023/06/24 00:11:59;;;;;;;11.35;8.35;;;19.60;99.90;;;;;;4922685;28;20419;-86
2023/06/24 00:14:28;;;;;;;13.15;7.35;;;19.60;99.90;;;;;;4923895;28;20027;-85
2023/06/24 00:16:56;;;;;;;12.05;8.15;;;19.60;99.90;;;;;;4939735;28;20027;-85
2023/06/24 00:19:26;;;;;;;11.55;7.97;;;19.60;99.90;;;;;;4944046;28;20016;-86
2023/06/24 00:21:53;;;;;;;8.15;7.13;;;19.60;99.90;;;;;;4950597;28;20020;-86
2023/06/24 00:24:28;;;;;;;11.95;7.65;;;19.50;99.90;;;;;;4956013;28;20078;-85
2023/06/24 00:26:53;;;;;;;11.40;7.15;;;19.50;99.90;;;;;;4944463;28;20046;-86
2023/06/24 00:29:19;;;;;;;8.40;6.65;;;19.50;99.90;;;;;;4965734;28;20118;-85
2023/06/24 00:31:45;;;;;;;12.95;7.28;;;19.50;99.90;;;;;;4942392;28;20074;-86
2023/06/24 00:34:10;;;;;;;11.48;7.57;;;19.50;99.90;;;;;;4925506;28;20191;-86
2023/06/24 00:36:37;;;;;;;17.33;9.90;;;19.40;99.90;;;;;;4925124;28;20023;-86
2023/06/24 00:39:05;;;;;;;12.20;8.30;;;19.40;99.90;;;;;;4924408;28;20263;-86
2023/06/24 00:41:32;;;;;;;13.15;8.85;;;19.30;99.90;;;;;;4940527;28;20027;-87
2023/06/24 00:43:59;;;;;;;9.82;7.85;;;19.30;99.90;;;;;;4941808;28;20023;-88
2023/06/24 00:46:25;;;;;;;11.23;8.13;;;19.20;99.90;;;;;;4927258;28;20019;-87
2023/06/24 00:48:55;;;;;;;10.18;8.60;;;19.10;99.90;;;;;;4925785;28;20126;-86
2023/06/24 00:51:26;;;;;;;12.82;9.30;;;19.10;99.90;;;;;;4942580;28;20480;-86
2023/06/24 00:53:55;;;;;;;11.57;9.05;;;19.00;99.90;;;;;;4944358;28;20087;-85
2023/06/24 00:56:42;;;;;;;15.40;9.27;;;19.00;99.90;;;;;;4927125;28;20038;-86
2023/06/24 00:59:14;;;;;;;14.93;9.63;;;18.90;99.90;;;;;;4944111;28;20243;-86
2023/06/24 01:01:41;;;;;;;17.52;10.40;;;18.90;99.90;;;;;;4928947;28;20038;-86
2023/06/24 01:04:07;;;;;;;13.23;9.25;;;18.90;99.90;;;;;;4926011;28;20042;-84
2023/06/24 01:06:35;;;;;;;12.93;9.45;;;18.90;99.90;;;;;;4942151;28;20032;-86
2023/06/24 01:09:02;;;;;;;13.90;9.45;;;18.90;99.90;;;;;;4927011;28;20129;-86
2023/06/24 01:11:29;;;;;;;22.27;9.48;;;19.00;99.90;;;;;;4944908;28;20033;-87
2023/06/24 01:13:55;;;;;;;12.50;9.70;;;19.00;99.90;;;;;;4926819;28;20023;-87
2023/06/24 01:16:54;;;;;;;11.95;9.73;;;19.10;99.90;;;;;;4945551;28;20035;-85
2023/06/24 01:19:45;;;;;;;12.25;9.15;;;19.10;99.90;;;;;;4943865;28;20455;-86
2023/06/24 01:22:36;;;;;;;14.23;9.38;;;19.20;99.90;;;;;;4925650;28;20036;-86
2023/06/24 01:25:20;;;;;;;14.82;10.35;;;19.20;99.90;;;;;;4946926;28;20051;-86
2023/06/24 01:27:57;;;;;;;14.43;9.27;;;19.20;99.90;;;;;;4943414;28;20059;-86
2023/06/24 01:30:40;;;;;;;16.77;9.52;;;19.20;99.90;;;;;;4948192;28;20023;-86
2023/06/24 01:33:08;;;;;;;;;;;19.30;99.90;;;;;;4949619;28;20027;-86
2023/06/24 01:35:36;;;;;;;15.52;9.85;;;19.20;99.90;;;;;;4950130;28;19906;-86
2023/06/24 01:38:08;;;;;;;15.02;9.60;;;19.20;99.90;;;;;;4948650;28;20027;-87
2023/06/24 01:40:48;;;;;;;15.18;9.52;;;19.10;99.90;;;;;;4947830;28;20027;-86
2023/06/24 01:43:17;;;;;;;14.38;9.85;;;19.20;99.90;;;;;;4948747;28;20519;-86
2023/06/24 01:45:50;;;;;;;10.48;9.10;;;19.20;99.90;;;;;;4931984;29;20034;-86
2023/06/24 01:48:22;;;;;;;13.77;9.48;;;19.20;99.90;;;;;;4926198;28;20899;-86
2023/06/24 01:50:58;;;;;;;13.40;10.10;;;19.30;99.90;;;;;;4946577;28;20467;-86
2023/06/24 01:53:26;;;;;;;13.82;9.68;;;19.30;99.90;;;;;;4924153;28;20020;-86
2023/06/24 01:55:57;;;;;;;11.25;8.88;;;19.40;99.90;;;;;;4946678;28;20040;-87
2023/06/24 01:58:23;;;;;;;15.30;9.75;;;19.30;99.90;;;;;;4931490;29;20042;-86
2023/06/24 02:00:50;;;;;;;14.00;9.82;;;19.30;99.90;;;;;;4920619;28;20384;-85
2023/06/24 02:03:17;;;;;;;16.33;9.90;;;19.20;99.90;;;;;;4945460;28;20023;-85
2023/06/24 02:05:44;;;;;;;15.35;10.20;;;19.10;99.90;;;;;;4930520;28;20468;-86
2023/06/24 02:08:13;;;;;;;15.60;10.27;;;19.00;99.90;;;;;;4925970;28;20066;-85
2023/06/24 02:10:40;;;;;;;16.75;9.93;;;19.00;99.90;;;;;;4930683;29;20515;-84
2023/06/24 02:13:08;;;;;;;15.63;10.18;;;18.90;99.90;;;;;;4924061;28;20027;-86
2023/06/24 02:15:36;;;;;;;14.15;10.13;;;18.90;99.90;;;;;;4927645;28;20031;-86
2023/06/24 02:18:05;;;;;;;13.35;9.45;;;18.80;99.90;;;;;;4942900;28;20653;-86
2023/06/24 02:20:32;;;;;;;12.95;9.57;;;18.90;99.90;;;;;;4963619;28;20479;-86
2023/06/24 02:22:59;;;;;;;11.35;9.05;;;18.90;99.90;;;;;;4947718;28;20054;-86
2023/06/24 02:25:26;;;;;;;11.77;8.98;;;18.90;99.90;;;;;;4926013;29;20106;-86
2023/06/24 02:27:54;;;;;;;14.50;9.30;;;18.90;99.90;;;;;;4945024;28;20039;-86
2023/06/24 02:30:23;;;;;;;15.60;9.10;;;18.90;99.90;;;;;;4929142;29;20027;-86
2023/06/24 02:32:48;;;;;;;18.98;9.55;;;18.90;99.90;;;;;;4946351;28;20094;-84
2023/06/24 02:35:14;;;;;;;12.75;10.00;;;18.80;99.90;;;;;;4945765;28;20660;-85
2023/06/24 02:37:40;;;;;;;16.02;9.50;;;18.80;99.90;;;;;;4930982;29;20051;-85
2023/06/24 02:40:07;;;;;;;14.02;10.45;;;18.80;99.90;;;;;;4941550;28;20039;-86
2023/06/24 02:42:33;;;;;;;13.95;10.43;;;18.70;99.90;;;;;;4973714;28;20133;-86
2023/06/24 02:47:47;;;;;;;14.95;9.98;;;18.70;99.90;;;;;;5041974;23;20066;-85
2023/06/24 02:50:14;;;;;;;15.25;9.80;;;18.70;99.90;;;;;;4983884;28;20023;-86
2023/06/24 02:52:40;;;;;;;16.38;10.55;;;18.70;99.90;;;;;;4953139;28;20023;-85
2023/06/24 02:55:07;;;;;;;18.15;10.10;;;18.70;99.90;;;;;;4982992;28;20041;-86
2023/06/24 02:57:36;;;;;;;13.95;9.40;;;18.70;99.90;;;;;;4981552;28;20041;-85
2023/06/24 03:00:08;;;;;;;19.75;10.15;;;18.70;99.90;;;;;;4982661;28;20018;-85
2023/06/24 03:02:35;;;;;;;17.45;9.52;;;18.60;99.90;;;;;;4965249;28;20483;-85
2023/06/24 03:05:02;;;;;;;18.83;10.20;;;18.60;99.90;;;;;;4981000;28;20172;-84
2023/06/24 03:07:27;;;;;;;16.30;10.30;;;18.50;99.90;;;;;;4982089;28;20378;-85
2023/06/24 03:09:53;;;;;;;16.00;9.50;;;18.50;99.90;;;;;;4973207;28;20025;-85
2023/06/24 03:12:21;;;;;;;16.38;9.02;;;18.50;99.90;;;;;;4964655;28;20044;-84
2023/06/24 03:14:49;;;;;;;14.70;10.15;;;18.50;99.90;;;;;;4963721;28;20026;-84
2023/06/24 03:17:15;;;;;;;14.68;10.13;;;18.40;99.90;;;;;;4980481;28;20018;-85
2023/06/24 03:19:42;;;;;;;12.10;9.20;;;18.40;99.90;;;;;;4964976;28;20189;-85
2023/06/24 03:22:08;;;;;;;14.93;10.40;;;18.40;99.90;;;;;;4980966;28;20117;-85
2023/06/24 03:24:33;;;;;;;15.52;10.02;;;18.30;99.90;;;;;;4956253;28;21758;-85
2023/06/24 03:26:59;;;;;;;22.27;9.93;;;18.30;99.90;;;;;;4979562;28;20713;-85
2023/06/24 03:29:24;;;;;;;17.75;9.90;;;18.30;99.90;;;;;;4981162;28;20533;-84
2023/06/24 03:31:52;;;;;;;21.13;11.23;;;18.30;99.90;;;;;;4981114;28;20022;-85
2023/06/24 03:34:18;;;;;;;14.50;9.88;;;18.30;99.90;;;;;;4954523;28;20029;-85
2023/06/24 03:36:44;;;;;;;18.85;11.57;;;18.30;99.90;;;;;;4964575;28;20026;-85
2023/06/24 03:39:09;;;;;;;16.75;10.57;;;18.30;99.90;;;;;;4961790;28;20049;-85
2023/06/24 03:41:37;;;;;;;18.02;10.75;;;18.40;99.90;;;;;;4979069;28;20038;-85
2023/06/24 03:44:03;;;;;;;15.98;10.52;;;18.40;99.90;;;;;;4952151;28;20077;-85
2023/06/24 03:46:32;;;;;;;16.90;10.52;;;18.40;99.90;;;;;;4980689;28;20062;-85
2023/06/24 03:48:58;;;;;;;14.32;10.75;;;18.40;99.90;;;;;;4981801;28;20030;-85
2023/06/24 03:51:24;;;;;;;18.77;10.35;;;18.50;99.90;;;;;;4978038;28;20023;-86
2023/06/24 03:53:50;;;;;;;18.83;10.10;;;18.50;99.90;;;;;;4982190;28;20061;-85
2023/06/24 03:56:15;;;;;;;19.38;10.88;;;18.60;99.90;;;;;;4980526;28;20025;-85
2023/06/24 03:58:43;;;;;;;21.63;11.05;;;18.60;99.90;;;;;;4963423;28;20053;-85
2023/06/24 04:01:09;;;;;;;15.38;10.05;;;18.70;99.90;;;;;;4982164;28;20172;-85
2023/06/24 04:03:35;;;;;;;15.23;9.95;;;18.70;99.90;;;;;;4981557;28;20545;-86
2023/06/24 04:06:04;;;;;;;17.67;10.30;;;18.80;99.90;;;;;;4983358;28;20019;-85
2023/06/24 04:08:30;;;;;;;14.70;9.63;;;18.90;99.90;;;;;;5001880;28;20350;-84
2023/06/24 04:10:56;;;;;;;15.00;9.90;;;18.90;99.90;;;;;;4983353;28;20068;-83
2023/06/24 04:13:22;;;;;;;11.30;9.52;;;18.90;99.90;;;;;;4962806;28;20821;-83
2023/06/24 04:15:47;;;;;;;17.25;10.82;;;18.90;99.90;;;;;;4962415;28;20036;-84
2023/06/24 04:18:14;;;;;;;17.73;10.05;;;18.90;99.90;;;;;;4956980;28;20023;-83
2023/06/24 04:20:39;;;;;;;15.63;10.32;;;18.80;99.90;;;;;;4982251;28;20026;-83
2023/06/24 04:23:09;;;;;;;17.60;11.00;;;18.90;99.90;;;;;;4956647;28;20092;-83
2023/06/24 04:25:37;;;;;;;20.75;10.55;;;19.00;99.90;;;;;;4978927;28;20034;-84
2023/06/24 04:28:04;;;;;;;14.07;10.93;;;19.10;99.90;;;;;;4968026;28;20031;-84
2023/06/24 04:30:30;;;;;;;18.08;10.75;;;19.10;99.90;;;;;;4988608;28;20027;-86
2023/06/24 04:32:56;;;;;;;16.55;10.73;;;19.20;99.90;;;;;;4973227;28;20032;-84
2023/06/24 04:35:24;;;;;;;20.98;10.98;;;19.30;99.90;;;;;;4976561;28;20038;-84
2023/06/24 04:37:50;;;;;;;14.52;10.05;;;19.30;99.90;;;;;;4987357;28;20027;-84
2023/06/24 04:40:17;;;;;;;13.50;10.35;;;19.50;99.90;;;;;;4975910;28;20026;-86
2023/06/24 04:42:43;;;;;;;19.20;10.77;;;19.60;99.90;;;;;;4987691;28;20030;-83
2023/06/24 04:45:09;;;;;;;17.02;10.85;;;19.60;99.90;;;;;;4978659;28;20030;-84
2023/06/24 04:47:34;;;;;;;14.15;10.70;;;19.70;99.90;;;;;;4969393;28;20060;-86
2023/06/24 04:50:00;;;;;;;18.10;10.90;;;19.70;99.90;;;;;;4971025;28;20027;-85
2023/06/24 04:52:25;;;;;;;13.70;9.43;;;19.80;99.90;;;;;;4987214;28;20764;-85
2023/06/24 04:54:51;;;;;;;14.77;9.93;;;19.90;99.90;;;;;;4984602;28;20041;-85
2023/06/24 04:57:31;;;;;;;17.25;10.50;;;20.00;99.90;;;;;;4989919;28;20080;-85
2023/06/24 04:59:58;;;;;;;20.60;11.05;;;20.10;99.90;;;;;;4984011;28;20057;-85
2023/06/24 05:02:24;;;;;;;14.13;10.25;;;20.10;99.90;;;;;;5014009;28;20014;-85
2023/06/24 05:04:55;;;;;;;15.05;10.52;;;20.30;99.90;;;;;;4998497;28;20038;-85
2023/06/24 05:07:21;;;;;;;15.43;10.05;;;20.40;99.90;;;;;;4993792;28;20045;-85
2023/06/24 05:09:47;;;;;;;21.48;11.93;;;20.40;99.90;;;;;;4989806;28;20027;-84
2023/06/24 05:12:13;;;;;;;19.73;11.05;;;20.50;99.90;;;;;;4964549;28;20564;-85
2023/06/24 05:14:39;;;;;;;18.63;11.43;;;20.60;99.90;;;;;;4962515;28;20054;-85
2023/06/24 05:17:05;;;;;;;14.13;10.60;;;20.60;99.90;;;;;;4986188;28;20138;-84
2023/06/24 05:19:31;;;;;;;19.15;10.82;;;20.80;99.90;;;;;;4979739;28;20025;-85
2023/06/24 05:21:56;;;;;;;20.52;11.30;;;20.80;99.90;;;;;;4983982;28;20033;-85
2023/06/24 05:24:22;;;;;;;14.85;10.77;;;20.90;99.90;;;;;;4970862;28;20038;-85
2023/06/24 05:26:50;;;;;;;16.38;12.35;;;20.80;99.90;;;;;;4985326;28;20032;-86
2023/06/24 05:29:16;;;;;;;21.27;11.93;;;20.80;99.90;;;;;;4974426;28;20023;-84
2023/06/24 05:31:42;;;;;;;16.08;11.80;;;20.80;99.90;;;;;;4969106;28;20026;-86
2023/06/24 05:34:08;;;;;;;14.88;11.52;;;20.90;99.90;;;;;;4967962;28;20053;-84
2023/06/24 05:36:36;;;;;;;25.85;12.18;;;20.90;99.90;;;;;;4967053;28;20061;-82
2023/06/24 05:39:01;;;;;;;22.80;12.35;;;21.00;99.90;;;;;;4988323;28;20050;-86
2023/06/24 05:41:30;;;;;;;15.75;11.45;;;20.90;99.90;;;;;;4981051;28;20054;-86
2023/06/24 05:44:03;;;;;;;17.30;11.50;;;21.00;99.90;;;;;;4983955;28;20077;-83
2023/06/24 05:46:30;;;;;;;26.17;12.65;;;21.00;99.90;;;;;;4986415;28;20730;-84
2023/06/24 05:48:58;;;;;;;16.30;11.82;;;21.10;99.90;;;;;;4963342;28;20061;-86
2023/06/24 05:51:24;;;;;;;22.42;12.30;;;21.20;99.90;;;;;;4969175;28;20322;-84
2023/06/24 05:53:49;;;;;;;21.08;13.38;;;21.30;99.90;;;;;;4988788;28;20062;-83
2023/06/24 05:56:15;;;;;;;20.98;12.75;;;21.20;99.90;;;;;;4988275;28;20049;-83
2023/06/24 05:58:40;;;;;;;24.92;14.00;;;21.30;99.90;;;;;;4995706;28;20022;-83
2023/06/24 06:01:07;;;;;;;24.05;13.23;;;21.40;99.90;;;;;;5001512;28;20042;-83
2023/06/24 06:03:35;;;;;;;18.85;12.50;;;21.50;99.90;;;;;;4969976;28;20681;-83
2023/06/24 06:06:00;;;;;;;19.67;13.73;;;21.50;99.90;;;;;;4959138;28;20034;-84
2023/06/24 06:08:26;;;;;;;22.27;13.27;;;21.60;99.90;;;;;;4986937;28;20577;-84
2023/06/24 06:10:52;;;;;;;22.23;13.77;;;21.70;99.90;;;;;;4986678;28;20340;-83
2023/06/24 06:13:17;;;;;;;23.27;13.93;;;21.80;99.90;;;;;;4984414;28;20022;-83
2023/06/24 06:15:43;;;;;;;25.55;15.10;;;21.80;99.90;;;;;;4970874;28;20722;-82
2023/06/24 06:18:08;;;;;;;24.15;14.50;;;21.90;99.90;;;;;;4967789;28;20037;-83
2023/06/24 06:20:34;;;;;;;22.77;14.30;;;21.80;99.90;;;;;;4961931;28;20033;-86
2023/06/24 06:23:00;;;;;;;25.13;14.73;;;21.90;99.90;;;;;;4975352;28;20035;-85
2023/06/24 06:25:25;;;;;;;19.73;14.65;;;21.80;99.90;;;;;;4976662;28;20394;-86
2023/06/24 06:27:53;;;;;;;24.65;15.63;;;21.80;99.90;;;;;;4981031;28;20092;-87
2023/06/24 06:30:19;;;;;;;24.02;15.23;;;21.90;99.90;;;;;;4996068;28;20437;-87
2023/06/24 06:32:44;;;;;;;21.08;14.20;;;22.00;99.90;;;;;;4981299;28;20106;-85
2023/06/24 06:35:10;;;;;;;26.38;15.43;;;22.00;99.90;;;;;;4989039;28;20124;-86
2023/06/24 06:37:36;;;;;;;21.63;15.60;;;22.10;99.90;;;;;;4987993;28;20864;-84
2023/06/24 06:40:02;;;;;;;23.02;15.77;;;21.90;99.90;;;;;;4973665;28;20661;-85
2023/06/24 06:42:30;;;;;;;21.75;15.13;;;22.00;99.90;;;;;;4972527;28;20118;-85
2023/06/24 06:44:56;;;;;;;25.38;15.43;;;22.20;99.90;;;;;;4989278;28;20102;-85
2023/06/24 06:47:22;;;;;;;33.78;15.27;;;22.10;99.90;;;;;;4986491;28;20041;-85
2023/06/24 06:49:47;;;;;;;24.60;16.58;;;22.30;99.90;;;;;;4969649;28;20050;-84
2023/06/24 06:52:13;;;;;;;31.42;16.90;;;22.20;99.90;;;;;;4987868;28;20066;-84
2023/06/24 06:54:41;;;;;;;26.25;16.00;;;22.20;99.90;;;;;;4988447;28;20045;-85
2023/06/24 06:57:07;;;;;;;27.52;17.23;;;22.30;99.90;;;;;;4969119;28;20073;-83
2023/06/24 06:59:33;;;;;;;24.23;16.50;;;22.50;99.90;;;;;;4987988;28;20026;-85
2023/06/24 07:01:59;;;;;;;25.60;17.02;;;22.50;99.90;;;;;;4987133;28;20057;-85
2023/06/24 07:04:24;;;;;;;26.05;18.17;;;22.60;99.90;;;;;;4988732;28;20026;-85
2023/06/24 07:06:50;;;;;;;28.05;19.08;;;22.70;99.90;;;;;;5002753;28;20557;-85
2023/06/24 07:09:16;;;;;;;28.83;18.65;;;22.70;99.90;;;;;;4988290;28;20090;-83
2023/06/24 07:11:42;;;;;;;27.90;19.67;;;22.60;99.90;;;;;;4987979;28;20600;-86
2023/06/24 07:14:08;;;;;;;31.77;19.92;;;22.60;99.90;;;;;;4997031;28;20058;-85
2023/06/24 07:16:34;;;;;;;29.95;18.90;;;22.70;99.90;;;;;;4996140;28;20022;-84
2023/06/24 07:18:59;;;;;;;30.77;18.45;;;22.80;99.90;;;;;;4997420;28;20049;-84
2023/06/24 07:21:25;;;;;;;27.08;19.02;;;22.90;99.90;;;;;;4977681;28;20032;-84
2023/06/24 07:23:51;;;;;;;27.80;18.10;;;22.90;99.90;;;;;;4977074;28;20026;-85
2023/06/24 07:26:16;;;;;;;29.48;19.10;;;23.00;99.90;;;;;;5079014;23;20567;-80
2023/06/24 07:28:42;;;;;;;27.05;18.40;;;23.20;99.90;;;;;;4937134;28;20460;-84
2023/06/24 07:31:07;;;;;;;27.13;18.98;;;23.20;99.90;;;;;;4923841;29;20032;-80
2023/06/24 07:33:33;;;;;;;29.77;19.17;;;23.30;99.90;;;;;;4921875;29;20023;-83
2023/06/24 07:35:59;;;;;;;29.77;19.00;;;23.40;99.90;;;;;;4920326;29;20032;-78
2023/06/24 07:38:25;;;;;;;675.95;246.13;;;23.50;99.90;;;;;;4917596;29;20028;-79
2023/06/24 07:40:50;;;;;;;27.92;19.17;;;23.70;99.90;;;;;;4920761;29;20443;-79
2023/06/24 07:43:16;;;;;;;28.55;18.77;;;23.70;99.90;;;;;;4910791;29;20476;-80
2023/06/24 07:45:41;;;;;;;25.98;17.67;;;23.80;99.90;;;;;;4932161;28;20039;-80
2023/06/24 07:48:07;;;;;;;22.45;15.25;;;23.90;99.90;;;;;;4912600;29;20054;-80
2023/06/24 07:50:36;;;;;;;18.90;14.25;;;24.00;99.90;;;;;;4929212;28;20142;-80
2023/06/24 07:53:02;;;;;;;25.02;15.13;;;24.20;99.90;;;;;;4911526;29;20476;-79
2023/06/24 07:55:28;;;;;;;18.88;13.05;;;24.30;99.90;;;;;;4912902;29;20106;-79
2023/06/24 07:57:58;;;;;;;21.77;13.88;;;24.50;99.90;;;;;;4926958;29;20579;-80
2023/06/24 08:00:24;;;;;;;20.73;14.45;;;24.60;99.90;;;;;;4915171;29;20038;-87
2023/06/24 08:02:49;;;;;;;24.75;14.75;;;24.70;99.90;;;;;;4921541;29;20028;-83
2023/06/24 08:05:20;;;;;;;95.25;48.28;;;24.70;99.90;;;;;;4917053;29;20024;-80
2023/06/24 08:07:45;;;;;;;26.15;15.82;;;24.70;99.90;;;;;;4919014;29;20036;-85
2023/06/24 08:10:11;;;;;;;21.92;14.90;;;24.80;99.90;;;;;;4920007;29;20078;-84
2023/06/24 08:12:37;;;;;;;20.85;14.80;;;24.80;99.90;;;;;;4921654;29;20039;-86
2023/06/24 08:15:03;;;;;;;20.38;14.20;;;24.90;99.90;;;;;;4920892;29;20051;-83
2023/06/24 08:17:28;;;;;;;20.67;10.73;;;25.00;99.90;;;;;;4923340;29;20031;-83
2023/06/24 08:19:54;;;;;;;14.43;8.82;;;25.30;99.90;;;;;;4920957;29;20031;-87
2023/06/24 08:22:20;;;;;;;15.00;9.32;;;25.40;99.90;;;;;;4922174;29;20031;-84
2023/06/24 08:24:45;;;;;;;12.70;10.18;;;25.60;99.90;;;;;;4922438;29;20412;-85
2023/06/24 08:27:11;;;;;;;14.05;8.70;;;25.90;99.90;;;;;;4921645;29;20040;-81
2023/06/24 08:29:37;;;;;;;10.10;8.70;;;26.00;99.90;;;;;;4936757;28;20142;-85
2023/06/24 08:32:04;;;;;;;18.52;8.73;;;26.20;99.10;;;;;;4931623;28;20126;-85
2023/06/24 08:34:30;;;;;;;13.45;8.88;;;26.40;98.70;;;;;;4942231;29;20027;-83
2023/06/24 08:36:55;;;;;;;13.32;8.90;;;26.80;98.20;;;;;;4926382;29;20534;-83
2023/06/24 08:39:21;;;;;;;11.13;9.02;;;27.00;96.90;;;;;;4922414;29;20027;-85
2023/06/24 08:41:47;;;;;;;12.20;8.63;;;27.20;96.60;;;;;;4936575;28;20039;-79
2023/06/24 08:44:12;;;;;;;14.25;9.10;;;27.20;96.50;;;;;;4921015;29;20032;-83
2023/06/24 08:46:38;;;;;;;17.17;10.90;;;27.40;95.60;;;;;;4914361;29;20027;-80
2023/06/24 08:49:19;;;;;;;12.35;8.60;;;27.60;94.10;;;;;;4915662;29;20404;-79
2023/06/24 08:51:48;;;;;;;9.48;8.07;;;27.70;93.90;;;;;;4916480;29;20095;-79
2023/06/24 08:54:14;;;;;;;10.38;8.00;;;27.80;93.50;;;;;;4919946;29;20099;-79
2023/06/24 08:56:41;;;;;;;13.38;8.95;;;28.00;92.90;;;;;;4920323;29;20484;-79
2023/06/24 08:59:08;;;;;;;12.07;8.70;;;27.90;92.10;;;;;;4933924;28;20031;-79
2023/06/24 09:01:34;;;;;;;11.40;8.80;;;28.10;91.80;;;;;;4919869;29;20546;-79
2023/06/24 09:04:00;;;;;;;12.27;8.68;;;28.10;91.00;;;;;;4920460;29;20035;-79
2023/06/24 09:06:25;;;;;;;13.77;10.15;;;28.20;91.90;;;;;;4920667;29;20027;-79
2023/06/24 09:08:57;;;;;;;14.13;8.57;;;28.30;91.30;;;;;;4925362;29;20036;-79
2023/06/24 09:11:24;;;;;;;14.20;10.10;;;28.40;91.20;;;;;;4920547;29;20034;-79
2023/06/24 09:13:55;;;;;;;11.75;8.85;;;28.30;90.20;;;;;;4923515;29;20015;-79
2023/06/24 09:16:21;;;;;;;343.00;176.80;;;28.50;90.40;;;;;;4922629;29;20483;-76
2023/06/24 09:18:50;;;;;;;10.90;9.13;;;28.30;89.10;;;;;;4923601;29;20028;-83
2023/06/24 09:21:24;;;;;;;9.57;8.23;;;28.10;89.60;;;;;;4922408;29;20038;-75
2023/06/24 09:23:59;;;;;;;13.80;8.27;;;28.40;89.50;;;;;;4927343;29;20039;-75
2023/06/24 09:26:30;;;;;;;7.80;6.95;;;28.70;85.70;;;;;;4934839;29;20102;-76
2023/06/24 09:28:57;;;;;;;9.13;7.45;;;28.50;82.60;;;;;;4937275;29;20040;-76
2023/06/24 09:31:23;;;;;;;11.30;7.82;;;28.50;81.80;;;;;;4938966;29;20084;-76
2023/06/24 09:33:49;;;;;;;10.65;7.38;;;28.60;80.80;;;;;;4924741;29;20033;-75
2023/06/24 09:36:16;;;;;;;7.47;6.72;;;29.00;80.00;;;;;;4923924;29;20024;-75
2023/06/24 09:38:45;;;;;;;10.50;7.82;;;28.70;79.60;;;;;;4926367;29;20038;-75
2023/06/24 09:41:13;;;;;;;11.93;9.27;;;29.00;77.80;;;;;;4926733;29;20048;-76
2023/06/24 09:43:43;;;;;;;52.13;27.05;;;29.00;80.90;;;;;;4927604;29;20039;-77
2023/06/24 09:46:11;;;;;;;7.85;6.25;;;29.30;80.50;;;;;;4926389;29;20033;-79
2023/06/24 09:48:37;;;;;;;12.30;7.50;;;29.40;71.30;;;;;;4928068;29;20067;-79
2023/06/24 09:51:04;;;;;;;14.00;8.68;;;29.40;71.50;;;;;;4927574;29;20077;-79
2023/06/24 09:53:34;;;;;;;10.35;7.88;;;29.40;74.30;;;;;;4925424;29;20851;-79
2023/06/24 09:56:04;;;;;;;12.25;7.55;;;29.30;72.10;;;;;;4924577;29;20063;-79
2023/06/24 09:58:36;;;;;;;10.27;8.07;;;29.80;69.40;;;;;;4928493;29;20047;-88
2023/06/24 10:01:04;;;;;;;11.90;8.20;;;29.80;70.30;;;;;;4932194;29;20079;-88
2023/06/24 10:03:32;;;;;;;9.77;7.45;;;30.00;71.40;;;;;;4946547;28;20035;-88
2023/06/24 10:06:00;;;;;;;9.85;8.85;;;29.70;68.70;;;;;;4931665;29;20103;-85
2023/06/24 10:08:27;;;;;;;12.90;8.68;;;30.20;69.80;;;;;;4930220;29;20485;-78
2023/06/24 10:10:53;;;;;;;11.15;7.57;;;30.60;70.90;;;;;;4921436;29;20035;-73
2023/06/24 10:13:18;;;;;;;13.52;7.10;;;31.00;70.60;;;;;;4918555;29;20044;-77
2023/06/24 10:15:45;;;;;;;10.98;7.10;;;31.40;67.50;;;;;;4926931;29;20043;-77
2023/06/24 10:18:30;;;;;;;9.70;7.85;;;31.70;67.10;;;;;;4938910;28;20036;-79
2023/06/24 10:20:58;;;;;;;9.65;7.22;;;31.80;66.30;;;;;;4919346;29;20563;-78
2023/06/24 10:23:40;;;;;;;9.18;7.05;;;31.50;67.50;;;;;;4931996;28;20098;-87
2023/06/24 10:26:11;;;;;;;8.63;7.65;;;32.00;65.70;;;;;;4931831;29;20067;-84
2023/06/24 10:29:05;;;;;;;8.30;6.28;;;32.00;65.30;;;;;;4932286;29;20388;-83
2023/06/24 10:31:39;;;;;;;11.23;8.32;;;32.30;64.60;;;;;;4919716;29;20032;-76
2023/06/24 10:34:23;;;;;;;7.22;6.18;;;32.20;63.00;;;;;;4929387;29;20051;-77
2023/06/24 10:36:59;;;;;;;8.52;5.97;;;32.40;62.50;;;;;;4929961;29;20027;-79
2023/06/24 10:39:53;;;;;;;8.50;7.22;;;32.70;62.00;;;;;;4942306;28;20050;-80
2023/06/24 10:42:35;;;;;;;7.95;6.50;;;31.60;59.60;;;;;;4921383;29;20035;-79
2023/06/24 10:45:10;;;;;;;6.00;5.15;;;31.30;61.50;;;;;;4920323;29;20032;-78
2023/06/24 10:47:41;;;;;;;6.68;5.50;;;31.60;59.70;;;;;;4920624;29;20039;-79
2023/06/24 10:50:09;;;;;;;5.70;4.32;;;31.80;58.50;;;;;;4920870;29;20087;-80
2023/06/24 10:52:42;;;;;;;6.20;5.22;;;32.00;57.80;;;;;;4921914;29;20062;-80
2023/06/24 10:55:08;;;;;;;8.15;5.05;;;32.30;55.90;;;;;;4922834;29;20059;-79
2023/06/24 10:57:34;;;;;;;8.32;5.40;;;32.40;56.10;;;;;;4935675;28;20055;-79
2023/06/24 11:00:01;;;;;;;5.75;4.60;;;32.50;56.50;;;;;;4921649;29;20047;-79
2023/06/24 11:02:27;;;;;;;5.35;4.70;;;32.70;56.80;;;;;;4920770;29;20523;-79
2023/06/24 11:04:59;;;;;;;5.63;5.10;;;32.40;56.80;;;;;;4923746;29;20045;-79
2023/06/24 11:07:30;;;;;;;6.97;5.97;;;32.60;55.80;;;;;;4913640;29;20031;-79
2023/06/24 11:09:58;;;;;;;5.60;4.88;;;32.40;55.40;;;;;;4914969;29;21214;-79
2023/06/24 11:12:38;;;;;;;6.43;5.75;;;32.60;57.10;;;;;;4923238;29;20153;-79
2023/06/24 11:15:09;;;;;;;5.72;4.85;;;32.10;55.70;;;;;;4923821;29;20091;-80
2023/06/24 11:17:36;;;;;;;5.57;4.38;;;32.00;55.40;;;;;;4921634;29;20020;-80
2023/06/24 11:20:07;;;;;;;4.97;4.47;;;31.80;56.40;;;;;;4922764;29;20547;-80
2023/06/24 11:22:32;;;;;;;7.43;4.60;;;31.90;54.50;;;;;;4919874;29;20798;-80
2023/06/24 11:24:58;;;;;;;4.18;3.85;;;32.10;53.80;;;;;;4921700;29;20032;-82
2023/06/24 11:27:25;;;;;;;9.65;5.07;;;31.80;50.90;;;;;;4923415;29;20122;-79
2023/06/24 11:29:53;;;;;;;5.60;4.55;;;31.50;53.40;;;;;;4923203;29;20020;-79
2023/06/24 11:32:22;;;;;;;6.88;5.15;;;31.50;54.60;;;;;;4923013;29;20042;-79
2023/06/24 11:34:48;;;;;;;6.43;5.82;;;31.30;55.60;;;;;;4924081;29;20038;-79
2023/06/24 11:37:17;;;;;;;8.60;4.70;;;31.50;55.10;;;;;;4923234;29;20023;-78
2023/06/24 11:39:43;;;;;;;4.53;3.85;;;31.50;55.50;;;;;;4923046;29;20134;-78
2023/06/24 11:42:09;;;;;;;4.47;3.58;;;31.20;52.80;;;;;;4921047;29;20135;-79
2023/06/24 11:44:37;;;;;;;4.70;4.28;;;31.00;52.30;;;;;;4939672;28;20052;-79
2023/06/24 11:47:07;;;;;;;4.45;3.30;;;31.50;52.10;;;;;;4937263;28;20044;-80
2023/06/24 11:49:47;;;;;;;3.38;3.15;;;31.50;51.20;;;;;;4931678;29;20031;-80
2023/06/24 11:52:12;;;;;;;4.10;3.70;;;31.20;50.40;;;;;;4929832;29;20111;-79
2023/06/24 11:58:02;;;;;;;3.63;3.33;;;31.50;51.80;;;;;;5045337;23;20498;-80
2023/06/24 12:00:42;;;;;;;4.43;3.67;;;32.00;52.10;;;;;;4989137;28;20046;-80
2023/06/24 12:03:10;;;;;;;3.75;3.45;;;32.60;50.20;;;;;;4993387;28;20037;-79
2023/06/24 12:05:36;;;;;;;3.63;3.42;;;33.00;48.90;;;;;;4993406;28;20481;-79
2023/06/24 12:08:07;;;;;;;8.40;3.58;;;33.30;48.90;;;;;;4974045;28;20033;-80
2023/06/24 12:10:33;;;;;;;4.20;3.88;;;32.80;47.40;;;;;;4994944;28;20037;-79
2023/06/24 12:13:03;;;;;;;6.18;3.00;;;32.50;48.90;;;;;;4974633;28;20118;-86
2023/06/24 12:15:29;;;;;;;4.30;3.50;;;32.10;46.00;;;;;;4996630;28;20025;-86
2023/06/24 12:17:55;;;;;;;4.22;3.80;;;32.10;48.50;;;;;;4978602;28;20044;-78
2023/06/24 12:20:22;;;;;;;4.55;3.60;;;32.10;47.50;;;;;;4988317;28;20030;-78
2023/06/24 12:22:48;;;;;;;3.70;3.40;;;32.10;48.80;;;;;;4972609;28;20103;-78
2023/06/24 12:25:14;;;;;;;3.22;3.03;;;32.20;48.70;;;;;;4969495;28;20125;-77
2023/06/24 12:27:42;;;;;;;3.88;3.58;;;32.40;48.50;;;;;;5004990;28;20507;-78
2023/06/24 12:30:08;;;;;;;4.63;4.10;;;32.90;47.40;;;;;;5007952;28;20076;-79
2023/06/24 12:32:34;;;;;;;3.53;3.22;;;33.20;48.70;;;;;;4984503;28;20030;-79
2023/06/24 12:35:00;;;;;;;3.72;3.42;;;33.30;46.30;;;;;;5024995;28;20018;-86
2023/06/24 12:37:28;;;;;;;7.15;3.50;;;33.20;46.70;;;;;;5027474;28;20030;-86
2023/06/24 12:39:54;;;;;;;6.72;3.53;;;33.50;47.60;;;;;;5013800;28;20450;-86
2023/06/24 12:42:19;;;;;;;6.55;3.33;;;33.50;47.20;;;;;;5010607;28;20030;-85
2023/06/24 12:44:45;;;;;;;6.22;3.53;;;33.20;46.20;;;;;;4996320;28;20014;-87
2023/06/24 12:47:11;;;;;;;5.15;3.80;;;33.50;46.70;;;;;;4997106;28;20058;-86